Salt Lake City, Utah
Traffic Map
Current Weather Conditions
Salt Lake City, Utah
Broken Clouds
Broken Clouds

Feels Like: 1°
Wind Chill: Ceiling: 6000
Heat Index: Visibility: 10mi
Dew Point: Wind: 8mph
Humidity: 79% Direction: 150° (SSE)
Pressure: 30.1in Gusts: 0mph
Raw Report DataKSLC 201353Z 15007KT 10SM FEW041 SCT048 BKN060 04/01 A3010 RMK AO2 SLP190 T00390006
Traffic Incident Summary
Active as of:
Severity:
Category:
InformationThere was an issue retrieving the traffic information for this location. Please try a different location or try again shortly.
Advertisements
Track Severe Weather on mobile